Time;durP1;ratioP1;P1;durP2;ratioP2;P2;SDS_P1;SDS_P2;PMS_P1;PMS_P2;Temp;Humidity;BMP_temperature;BMP_pressure;BME280_temperature;BME280_humidity;BME280_pressure;Samples;Min_cycle;Max_cycle;Signal;HPM_P1;HPM_P2
2023/11/13 06:11:35;;;;;;;;;;;;;;;5.90;100.00;99381.96;1835226;76;20099;-72
2023/11/13 06:14:05;;;;;;;;;;;;;;;5.93;100.00;99386.53;1796126;80;20100;-70
2023/11/13 06:16:32;;;;;;;;;;;;;;;5.99;100.00;99392.70;1785360;80;20147;-72
2023/11/13 06:18:59;;;;;;;;;;;;;;;6.06;100.00;99393.67;1798243;79;20418;-69
2023/11/13 06:21:25;;;;;;;;;;;;;;;6.10;100.00;99395.20;1793495;78;20147;-69
2023/11/13 06:23:52;;;;;;;;;;;;;;;6.16;100.00;99396.20;1779785;80;20124;-69
2023/11/13 06:26:19;;;;;;;;;;;;;;;6.24;100.00;99397.97;1799142;79;20133;-74
2023/11/13 06:28:46;;;;;;;;;;;;;;;6.31;100.00;99400.64;1797049;80;20387;-71
2023/11/13 06:31:12;;;;;;;;;;;;;;;6.39;100.00;99400.28;1784478;80;20938;-75
2023/11/13 06:33:40;;;;;;;;;;;;;;;6.45;100.00;99405.95;1782502;80;20407;-71
2023/11/13 06:36:10;;;;;;;;;;;;;;;6.50;100.00;99404.44;1778719;80;20135;-70
2023/11/13 06:38:37;;;;;;;;;;;;;;;6.56;100.00;99412.73;1804003;78;20154;-70
2023/11/13 06:41:07;;;;;;;;;;;;;;;6.60;100.00;99413.42;1808364;78;20125;-67
2023/11/13 06:43:33;;;;;;;;;;;;;;;6.62;100.00;99418.91;1808159;78;20131;-70
2023/11/13 06:46:01;;;;;;;;;;;;;;;6.63;100.00;99421.87;1766651;80;20158;-73
2023/11/13 06:48:29;;;;;;;;;;;;;;;6.66;100.00;99426.89;1777461;80;20102;-70
2023/11/13 06:50:57;;;;;;;;;;;;;;;6.66;100.00;99425.60;1798107;79;20605;-69
2023/11/13 06:53:28;;;;;;;;;;;;;;;6.69;100.00;99424.61;1777111;80;20163;-70
2023/11/13 06:55:57;;;;;;;;;;;;;;;6.72;100.00;99428.34;1781340;80;20421;-74
2023/11/13 06:58:26;;;;;;;;;;;;;;;6.76;100.00;99432.91;1772059;79;20452;-74
2023/11/13 07:00:52;;;;;;;;;;;;;;;6.78;100.00;99444.02;1772359;81;20130;-73
2023/11/13 07:03:22;;;;;;;;;;;;;;;6.79;100.00;99443.95;1772345;81;20090;-73
2023/11/13 07:05:54;;;;;;;;;;;;;;;6.81;100.00;99447.72;1774100;80;20141;-69
2023/11/13 07:08:21;;;;;;;;;;;;;;;6.81;100.00;99451.14;1774090;80;20115;-70
2023/11/13 07:10:54;;;;;;;;;;;;;;;6.84;100.00;99451.45;1761690;80;20182;-73
2023/11/13 07:13:21;;;;;;;;;;;;;;;6.82;100.00;99454.11;1764909;80;20164;-72
2023/11/13 07:15:50;;;;;;;;;;;;;;;6.81;100.00;99462.79;1760559;80;20134;-70
2023/11/13 07:18:16;;;;;;;;;;;;;;;6.81;100.00;99460.66;1765474;80;20128;-69
2023/11/13 07:20:46;;;;;;;;;;;;;;;6.81;100.00;99460.66;1780666;80;20102;-70
2023/11/13 07:23:16;;;;;;;;;;;;;;;6.82;100.00;99472.23;1759344;80;20099;-73
2023/11/13 07:25:44;;;;;;;;;;;;;;;6.84;100.00;99469.56;1757625;80;20926;-69
2023/11/13 07:28:11;;;;;;;;;;;;;;;6.86;100.00;99476.34;1759522;80;20573;-70
2023/11/13 07:30:38;;;;;;;;;;;;;;;6.91;100.00;99472.23;1767870;80;20153;-71
2023/11/13 07:33:05;;;;;;;;;;;;;;;6.94;100.00;99477.25;1763153;80;20414;-69
2023/11/13 07:35:32;;;;;;;;;;;;;;;6.99;100.00;99473.98;1767367;80;20147;-72
2023/11/13 07:37:58;;;;;;;;;;;;;;;7.02;100.00;99477.72;1769807;80;20130;-71
2023/11/13 07:40:27;;;;;;;;;;;;;;;7.05;100.00;99480.61;1758257;80;20133;-69
2023/11/13 07:42:54;;;;;;;;;;;;;;;7.08;100.00;99476.57;1761715;80;20133;-69
2023/11/13 07:45:21;;;;;;;;;;;;;;;7.10;100.00;99474.29;1762518;80;20099;-71
2023/11/13 07:47:48;;;;;;;;;;;;;;;7.13;100.00;99483.19;1763724;80;20108;-71
2023/11/13 07:50:14;;;;;;;;;;;;;;;7.16;100.00;99483.50;1765165;80;20115;-73
2023/11/13 07:52:42;;;;;;;;;;;;;;;7.18;100.00;99485.55;1758940;80;20179;-72
2023/11/13 07:55:12;;;;;;;;;;;;;;;7.22;100.00;99487.04;1759385;80;20380;-72
2023/11/13 07:57:39;;;;;;;;;;;;;;;7.22;100.00;99489.63;1733651;82;20122;-73
2023/11/13 08:00:09;;;;;;;;;;;;;;;7.25;100.00;99489.47;1794511;79;20099;-73
2023/11/13 08:02:40;;;;;;;;;;;;;;;7.25;100.00;99487.73;1779821;79;20115;-73
2023/11/13 08:05:10;;;;;;;;;;;;;;;7.28;100.00;99489.32;1786189;79;20118;-74
2023/11/13 08:07:37;;;;;;;;;;;;;;;7.31;100.00;99479.64;1784861;80;20106;-70
2023/11/13 08:10:08;;;;;;;;;;;;;;;7.37;100.00;99482.37;1798411;78;20151;-70
2023/11/13 08:12:35;;;;;;;;;;;;;;;7.44;100.00;99485.49;1797823;78;20198;-70
2023/11/13 08:15:03;;;;;;;;;;;;;;;7.49;100.00;99490.81;1802478;78;20146;-70
2023/11/13 08:17:31;;;;;;;;;;;;;;;7.55;100.00;99487.07;1802049;78;20369;-74
2023/11/13 08:19:59;;;;;;;;;;;;;;;7.60;100.00;99491.53;1795235;80;20205;-73
2023/11/13 08:22:26;;;;;;;;;;;;;;;7.69;100.00;99492.34;1798756;78;20164;-70
2023/11/13 08:24:53;;;;;;;;;;;;;;;7.81;100.00;99483.92;1809789;78;20390;-72
2023/11/13 08:27:19;;;;;;;;;;;;;;;7.94;100.00;99491.89;1796401;78;20201;-71
2023/11/13 08:29:46;;;;;;;;;;;;;;;8.03;100.00;99496.09;1804088;78;20137;-71
2023/11/13 08:32:13;;;;;;;;;;;;;;;8.08;100.00;99494.55;1777663;80;20162;-68
2023/11/13 08:34:40;;;;;;;;;;;;;;;8.11;100.00;99504.75;1787211;80;20161;-67
2023/11/13 08:37:07;;;;;;;;;;;;;;;8.13;100.00;99510.70;1779020;78;20147;-64
2023/11/13 08:39:33;;;;;;;;;;;;;;;8.15;100.00;99505.42;1801508;78;20401;-72
2023/11/13 08:42:01;;;;;;;;;;;;;;;8.15;100.00;99501.08;1763240;80;20167;-72
2023/11/13 08:44:29;;;;;;;;;;;;;;;8.16;100.00;99507.94;1801604;79;20555;-72
2023/11/13 08:46:56;;;;;;;;;;;;;;;8.18;100.00;99500.08;1782842;79;20170;-71
2023/11/13 08:49:23;;;;;;;;;;;;;;;8.18;100.00;99503.50;1780427;79;20105;-72
2023/11/13 08:51:52;;;;;;;;;;;;;;;8.18;100.00;99498.78;1788337;80;20167;-71
2023/11/13 08:54:18;;;;;;;;;;;;;;;8.18;100.00;99497.48;1785617;78;20173;-69
2023/11/13 08:56:52;;;;;;;;;;;;;;;8.17;100.00;99499.70;1794289;80;20408;-69
2023/11/13 08:59:20;;;;;;;;;;;;;;;8.18;100.00;99496.19;1782835;80;20547;-70
2023/11/13 09:01:52;;;;;;;;;;;;;;;8.14;100.00;99500.70;1779497;80;20161;-70
2023/11/13 09:04:19;;;;;;;;;;;;;;;8.13;100.00;99497.73;1786339;78;20149;-75
2023/11/13 09:06:50;;;;;;;;;;;;;;;8.12;100.00;99489.58;1770847;80;20169;-72
2023/11/13 09:09:17;;;;;;;;;;;;;;;8.13;100.00;99491.25;1774994;80;20282;-71
2023/11/13 09:11:47;;;;;;;;;;;;;;;8.17;100.00;99489.33;1765409;80;20320;-71
2023/11/13 09:14:17;;;;;;;;;;;;;;;8.15;100.00;99481.63;1783233;79;20123;-72
2023/11/13 09:16:44;;;;;;;;;;;;;;;8.20;100.00;99487.41;1785860;79;20450;-72
2023/11/13 09:19:11;;;;;;;;;;;;;;;8.27;100.00;99484.02;1785849;79;20134;-71
2023/11/13 09:21:38;;;;;;;;;;;;;;;8.33;100.00;99487.14;1766216;80;20148;-74
2023/11/13 09:24:14;;;;;;;;;;;;;;;8.38;100.00;99489.48;1785842;79;20156;-71
2023/11/13 09:26:42;;;;;;;;;;;;;;;8.43;100.00;99481.41;1727423;81;20166;-69
2023/11/13 09:29:09;;;;;;;;;;;;;;;8.47;100.00;99483.75;1761584;79;20186;-72
2023/11/13 09:31:38;;;;;;;;;;;;;;;8.54;100.00;99484.25;1785816;79;20164;-71
2023/11/13 13:25:34;;;;;;;;;;;;;;;7.82;100.00;99521.05;1781587;80;20466;-69
2023/11/13 13:28:05;;;;;;;;;;;;;;;7.79;100.00;99523.34;1776999;80;20362;-72
2023/11/13 13:30:32;;;;;;;;;;;;;;;7.77;100.00;99519.16;1778996;80;20122;-71
2023/11/13 13:32:59;;;;;;;;;;;;;;;7.75;100.00;99525.72;1784831;80;20144;-74
2023/11/13 13:35:27;;;;;;;;;;;;;;;7.73;100.00;99521.07;1788936;78;20132;-73
2023/11/13 13:52:55;;;;;;;;;;;;;;;7.58;100.00;99529.20;1801524;79;20391;-72
2023/11/13 13:55:23;;;;;;;;;;;;;;;7.54;100.00;99526.85;1779865;80;20558;-68
2023/11/13 14:00:39;;;;;;;;;;;;;;;7.51;100.00;99528.30;1784102;80;20162;-72
2023/11/13 14:02:46;;;;;;;;;;;;;;;7.49;100.00;99534.86;1775418;80;20158;-69
2023/11/13 14:05:16;;;;;;;;;;;;;;;7.48;100.00;99534.48;1790691;80;20096;-75
2023/11/13 14:07:50;;;;;;;;;;;;;;;7.44;100.00;99529.07;1773673;80;20110;-76
2023/11/13 14:10:17;;;;;;;;;;;;;;;7.43;100.00;99527.86;1761072;80;20132;-75
2023/11/13 14:12:44;;;;;;;;;;;;;;;7.40;100.00;99534.48;1773191;80;20128;-69
2023/11/13 14:15:12;;;;;;;;;;;;;;;7.38;100.00;99535.02;1751728;81;20105;-77
2023/11/13 14:20:15;;;;;;;;;;;;;;;7.31;100.00;99525.42;1766719;81;20129;-72
2023/11/13 14:22:51;;;;;;;;;;;;;;;7.26;100.00;99520.93;1793751;79;20380;-69
2023/11/13 14:25:17;;;;;;;;;;;;;;;7.23;100.00;99532.73;1792231;79;20405;-70
2023/11/13 14:27:53;;;;;;;;;;;;;;;7.21;100.00;99528.92;1792667;79;20126;-73
2023/11/13 14:30:25;;;;;;;;;;;;;;;7.19;100.00;99527.36;1793944;79;20412;-75
2023/11/13 14:32:53;;;;;;;;;;;;;;;7.17;100.00;99523.55;1795344;79;20144;-72
2023/11/13 14:35:20;;;;;;;;;;;;;;;7.16;100.00;99530.10;1804487;79;20141;-73
2023/11/13 14:37:48;;;;;;;;;;;;;;;7.13;100.00;99520.73;1799214;79;20154;-69
2023/11/13 14:40:19;;;;;;;;;;;;;;;7.12;100.00;99524.70;1796759;79;20165;-73
2023/11/13 14:42:45;;;;;;;;;;;;;;;7.11;100.00;99521.27;1767758;81;20109;-68
2023/11/13 14:45:14;;;;;;;;;;;;;;;7.11;100.00;99522.56;1784342;79;20126;-71
